Time;durP1;ratioP1;P1;durP2;ratioP2;P2;SDS_P1;SDS_P2;PMS_P1;PMS_P2;Temp;Humidity;BMP_temperature;BMP_pressure;BME280_temperature;BME280_humidity;BME280_pressure;Samples;Min_cycle;Max_cycle;Signal;HPM_P1;HPM_P2
2023/07/22 00:01:49;;;;;;;4.53;2.90;;;13.20;1.00;;;;;;5069298;28;20048;-92
2023/07/22 00:04:37;;;;;;;5.43;3.25;;;13.20;1.00;;;;;;5082969;28;20152;-93
2023/07/22 00:07:26;;;;;;;4.20;2.90;;;13.20;1.00;;;;;;5066196;28;20049;-91
2023/07/22 00:10:17;;;;;;;4.85;3.33;;;13.30;1.00;;;;;;5071591;28;20044;-91
2023/07/22 00:13:05;;;;;;;4.50;3.40;;;13.30;1.00;;;;;;5077742;28;20480;-90
2023/07/22 00:15:56;;;;;;;4.72;2.90;;;13.30;99.90;;;;;;5095030;28;20051;-91
2023/07/22 00:19:17;;;;;;;6.10;3.30;;;13.30;99.90;;;;;;5093859;28;20097;-92
2023/07/22 00:22:54;;;;;;;11.48;3.28;;;13.30;99.90;;;;;;5074867;28;20036;-90
2023/07/22 00:25:50;;;;;;;5.85;3.25;;;13.30;99.90;;;;;;5053563;28;20100;-92
2023/07/22 00:28:49;;;;;;;4.72;2.88;;;13.40;99.90;;;;;;5074995;28;20050;-90
2023/07/22 00:31:36;;;;;;;6.03;2.92;;;13.50;77.40;;;;;;5064789;28;20045;-91
2023/07/22 00:34:36;;;;;;;6.70;3.55;;;13.50;1.00;;;;;;5075792;28;20053;-92
2023/07/22 00:38:28;;;;;;;4.43;3.10;;;13.50;1.00;;;;;;5063916;28;20040;-92
2023/07/22 00:40:57;;;;;;;4.25;3.15;;;13.40;1.00;;;;;;5076266;28;20094;-91
2023/07/22 00:44:00;;;;;;;6.20;3.13;;;13.40;99.90;;;;;;5078192;28;20033;-93
2023/07/22 00:46:55;;;;;;;3.95;3.10;;;13.40;1.00;;;;;;5076960;28;20055;-92
2023/07/22 00:49:54;;;;;;;3.70;2.92;;;13.40;1.00;;;;;;5076229;28;20048;-93
2023/07/22 00:52:43;;;;;;;7.32;3.75;;;13.30;1.00;;;;;;5079872;28;20048;-91
2023/07/22 00:55:41;;;;;;;5.65;3.78;;;13.30;99.90;;;;;;5087773;28;20067;-93
2023/07/22 00:58:33;;;;;;;9.50;3.40;;;13.30;99.90;;;;;;5083795;28;20036;-92
2023/07/22 01:01:37;;;;;;;4.38;2.85;;;13.30;1.00;;;;;;5073212;28;20059;-90
2023/07/22 01:04:25;;;;;;;4.65;2.95;;;13.30;1.00;;;;;;5060938;28;20045;-92
2023/07/22 01:07:15;;;;;;;6.00;2.95;;;13.30;1.00;;;;;;5055895;28;20045;-92
2023/07/22 01:10:33;;;;;;;6.25;3.47;;;13.30;1.00;;;;;;5055604;28;20355;-94
2023/07/22 01:13:23;;;;;;;4.90;3.03;;;13.20;1.00;;;;;;5051308;28;20041;-93
2023/07/22 01:16:11;;;;;;;5.32;3.17;;;13.20;1.00;;;;;;5061459;28;20044;-90
2023/07/22 01:19:19;;;;;;;4.97;2.97;;;13.20;99.90;;;;;;5064434;28;20186;-94
2023/07/22 01:22:19;;;;;;;4.07;2.75;;;13.10;1.00;;;;;;5076247;28;20469;-93
2023/07/22 01:25:27;;;;;;;5.55;3.00;;;13.10;1.00;;;;;;5074242;28;20527;-92
2023/07/22 01:28:16;;;;;;;8.63;3.20;;;13.10;1.00;;;;;;5060719;28;20048;-91
2023/07/22 01:31:24;;;;;;;4.25;3.40;;;13.00;23.40;;;;;;5061083;28;20044;-91
2023/07/22 01:34:14;;;;;;;6.35;3.75;;;13.00;99.90;;;;;;5091058;28;20131;-92
2023/07/22 01:37:10;;;;;;;5.95;3.40;;;13.00;99.90;;;;;;5080107;28;20111;-92
2023/07/22 01:40:14;;;;;;;4.13;3.10;;;12.90;99.50;;;;;;5059732;28;20032;-92
2023/07/22 01:43:01;;;;;;;5.82;3.13;;;13.00;1.00;;;;;;5073292;28;20115;-93
2023/07/22 01:45:48;;;;;;;6.03;3.60;;;12.90;1.00;;;;;;5066349;28;20040;-91
2023/07/22 01:48:38;;;;;;;5.28;2.75;;;12.90;1.00;;;;;;5084704;28;20127;-93
2023/07/22 01:51:26;;;;;;;5.05;3.55;;;12.90;42.90;;;;;;5069999;28;20150;-92
2023/07/22 01:54:13;;;;;;;5.10;3.10;;;12.90;1.00;;;;;;5077580;28;20044;-91
2023/07/22 01:57:08;;;;;;;4.03;3.13;;;12.90;1.00;;;;;;5078124;28;20441;-92
2023/07/22 02:00:00;;;;;;;5.13;3.15;;;12.90;1.00;;;;;;5060779;28;20048;-91
2023/07/22 02:02:48;;;;;;;6.35;3.67;;;12.80;1.00;;;;;;5073386;28;20182;-90
2023/07/22 02:05:38;;;;;;;5.15;3.15;;;12.90;1.00;;;;;;5062867;28;20045;-93
2023/07/22 02:08:43;;;;;;;8.38;3.70;;;12.90;1.00;;;;;;5076199;28;20365;-92
2023/07/22 02:11:31;;;;;;;8.68;3.05;;;12.80;1.00;;;;;;5077100;28;20569;-92
2023/07/22 02:14:20;;;;;;;8.30;2.80;;;12.80;99.90;;;;;;5077031;28;20063;-93
2023/07/22 02:17:27;;;;;;;;;;;;;;;;;;;;;
2023/07/22 02:20:33;;;;;;;7.20;3.28;;;12.70;1.00;;;;;;5079994;28;20119;-93
2023/07/22 02:23:23;;;;;;;4.78;2.80;;;12.60;58.30;;;;;;5074018;28;20045;-92
2023/07/22 02:26:13;;;;;;;5.80;3.78;;;12.70;91.60;;;;;;5069931;28;20055;-91
2023/07/22 02:29:24;;;;;;;4.70;3.88;;;12.60;99.90;;;;;;5073717;28;20123;-94
2023/07/22 02:32:51;;;;;;;;;;;;;;;;;;;;;
2023/07/22 02:35:42;;;;;;;6.45;3.88;;;12.60;93.20;;;;;;5087005;28;20115;-92
2023/07/22 02:38:29;;;;;;;6.53;3.38;;;12.50;99.90;;;;;;5083164;28;20045;-92
2023/07/22 02:41:36;;;;;;;7.28;3.50;;;12.50;99.90;;;;;;5086571;28;20036;-91
2023/07/22 02:44:44;;;;;;;7.07;4.05;;;12.60;99.90;;;;;;5086959;28;20512;-90
2023/07/22 02:47:42;;;;;;;5.25;3.00;;;12.50;99.90;;;;;;5082251;28;20052;-91
2023/07/22 02:50:40;;;;;;;7.07;3.28;;;12.50;99.90;;;;;;5085415;28;20556;-94
2023/07/22 02:53:44;;;;;;;;;;;;;;;;;;;;;
2023/07/22 02:56:44;;;;;;;6.18;3.65;;;12.50;99.90;;;;;;5081807;28;20048;-92
2023/07/22 02:59:35;;;;;;;7.63;3.95;;;12.50;99.90;;;;;;5080532;28;20052;-91
2023/07/22 03:02:34;;;;;;;6.07;3.40;;;12.50;99.90;;;;;;5092220;28;20373;-93
2023/07/22 03:05:37;;;;;;;7.68;3.30;;;12.50;99.90;;;;;;5078024;28;20056;-92
2023/07/22 03:09:07;;;;;;;3.90;3.20;;;12.40;99.90;;;;;;5067027;28;20118;-93
2023/07/22 03:12:25;;;;;;;;;;;;;;;;;;;;;
2023/07/22 03:15:52;;;;;;;8.20;3.00;;;12.40;99.90;;;;;;5032350;28;20050;-93
2023/07/22 03:19:37;;;;;;;5.95;3.45;;;12.30;1.00;;;;;;5036968;28;20101;-91
2023/07/22 03:22:23;;;;;;;8.63;4.15;;;12.30;1.00;;;;;;5069150;28;20048;-92
2023/07/22 03:25:24;;;;;;;8.60;3.70;;;12.20;69.80;;;;;;5086512;28;20048;-92
2023/07/22 03:28:11;;;;;;;8.43;3.85;;;12.20;99.90;;;;;;5088794;28;20041;-93
2023/07/22 03:30:59;;;;;;;6.47;3.33;;;12.10;99.90;;;;;;5070334;28;20108;-90
2023/07/22 03:37:49;;;;;;;6.28;3.65;;;12.20;99.90;;;;;;4981756;28;20043;-92
2023/07/22 03:40:38;;;;;;;5.60;3.55;;;12.20;59.10;;;;;;4981913;28;20042;-89
2023/07/22 03:43:35;;;;;;;5.00;3.47;;;12.20;66.50;;;;;;4982103;28;20082;-87
2023/07/22 03:46:26;;;;;;;5.18;3.65;;;12.20;1.00;;;;;;5062987;28;20132;-91
2023/07/22 03:49:18;;;;;;;5.68;3.47;;;12.20;1.00;;;;;;5066323;28;20052;-90
2023/07/22 03:52:05;;;;;;;5.82;3.35;;;12.30;1.00;;;;;;5081226;28;20401;-92
2023/07/22 03:55:25;;;;;;;4.57;3.50;;;12.30;99.90;;;;;;5063860;28;20454;-93
2023/07/22 03:58:25;;;;;;;8.80;4.07;;;12.30;99.90;;;;;;5078276;28;20048;-92
2023/07/22 04:01:15;;;;;;;6.85;3.25;;;12.30;99.90;;;;;;5079496;28;20048;-90
2023/07/22 04:04:10;;;;;;;4.45;3.33;;;12.30;81.00;;;;;;5079402;28;20045;-91
2023/07/22 04:06:58;;;;;;;;;;;12.30;19.00;;;;;;5069852;28;20040;-91
2023/07/22 04:09:49;;;;;;;4.57;3.47;;;12.30;1.00;;;;;;5081231;28;20022;-93
2023/07/22 04:13:03;;;;;;;7.60;3.92;;;12.30;1.00;;;;;;5080624;28;20456;-92
2023/07/22 04:15:51;;;;;;;6.90;3.35;;;12.30;1.00;;;;;;5084724;28;20445;-90
2023/07/22 04:18:41;;;;;;;6.72;3.53;;;12.30;1.00;;;;;;5079156;28;20063;-92
2023/07/22 04:26:49;;;;;;;3.53;3.22;;;12.20;1.00;;;;;;5017414;28;20045;-93
2023/07/22 04:30:07;;;;;;;;;;;;;;;;;;;;;
2023/07/22 04:37:06;;;;;;;4.03;3.13;;;12.10;99.90;;;;;;4999898;28;20094;-92
2023/07/22 04:41:07;;;;;;;;;;;;;;;;;;;;;
2023/07/22 04:44:44;;;;;;;8.48;3.60;;;12.10;99.90;;;;;;5003650;28;20061;-89
2023/07/22 04:47:46;;;;;;;6.57;3.20;;;12.10;99.90;;;;;;5002924;28;20050;-92
2023/07/22 04:50:40;;;;;;;5.72;3.55;;;12.20;99.90;;;;;;5000813;28;20063;-91
2023/07/22 04:53:33;;;;;;;6.15;3.47;;;12.30;3.40;;;;;;5033457;28;20052;-92
2023/07/22 04:56:38;;;;;;;4.28;3.10;;;12.30;1.00;;;;;;5075113;28;20091;-91
2023/07/22 04:59:28;;;;;;;5.57;3.38;;;12.40;99.90;;;;;;5081093;28;20044;-89
2023/07/22 05:02:17;;;;;;;6.35;3.20;;;12.40;99.90;;;;;;5088683;28;20075;-91
2023/07/22 05:05:18;;;;;;;7.40;3.72;;;12.50;99.90;;;;;;5089491;28;20045;-88
2023/07/22 05:08:26;;;;;;;6.90;3.10;;;12.60;99.90;;;;;;5089272;28;20056;-91
2023/07/22 05:11:25;;;;;;;;;;;;;;;;;;;;;
2023/07/22 05:14:17;;;;;;;5.35;2.88;;;12.80;30.40;;;;;;5085797;28;20115;-88
2023/07/22 05:17:05;;;;;;;6.18;3.40;;;12.80;1.00;;;;;;5076806;28;20040;-91
2023/07/22 05:19:55;;;;;;;5.22;3.40;;;12.90;1.00;;;;;;5079341;28;20044;-94
2023/07/22 05:22:45;;;;;;;5.60;3.50;;;12.90;1.00;;;;;;5082882;28;20049;-91
2023/07/22 05:25:32;;;;;;;6.82;3.30;;;13.00;1.00;;;;;;5071774;28;20366;-89
2023/07/22 05:28:20;;;;;;;4.13;3.40;;;13.10;1.00;;;;;;5075739;28;20346;-87
2023/07/22 05:31:11;;;;;;;4.75;3.10;;;13.20;1.00;;;;;;5075329;28;20052;-88
2023/07/22 05:33:59;;;;;;;3.78;2.63;;;13.30;99.90;;;;;;5073843;28;20052;-86
2023/07/22 05:36:46;;;;;;;5.65;2.90;;;13.40;99.90;;;;;;5075851;28;20056;-87
2023/07/22 05:39:34;;;;;;;6.65;3.25;;;13.50;99.90;;;;;;5084257;28;20399;-87
2023/07/22 05:42:21;;;;;;;3.90;3.17;;;13.60;99.90;;;;;;5087205;28;20072;-88
2023/07/22 05:45:13;;;;;;;5.13;3.28;;;13.70;99.90;;;;;;5075983;28;20072;-87
2023/07/22 05:48:04;;;;;;;5.15;3.53;;;13.90;99.90;;;;;;5060915;28;20044;-88
2023/07/22 05:50:52;;;;;;;5.40;3.45;;;14.00;99.90;;;;;;5061159;28;20059;-86
2023/07/22 05:53:39;;;;;;;6.35;3.55;;;14.20;99.90;;;;;;5074820;28;20040;-89
2023/07/22 05:56:26;;;;;;;7.25;3.60;;;14.30;98.20;;;;;;5079799;28;20106;-87
2023/07/22 05:59:14;;;;;;;9.13;3.13;;;14.50;22.00;;;;;;5060159;28;20253;-87
2023/07/22 06:02:08;;;;;;;5.38;3.30;;;14.70;1.00;;;;;;5073100;28;20056;-87
2023/07/22 06:04:56;;;;;;;4.60;2.90;;;14.80;1.00;;;;;;5080604;28;20431;-87
2023/07/22 06:07:46;;;;;;;6.15;3.03;;;14.90;1.00;;;;;;5072964;28;20059;-88
2023/07/22 06:10:33;;;;;;;4.78;3.10;;;15.00;99.90;;;;;;5086197;28;20437;-88
2023/07/22 06:13:20;;;;;;;4.60;3.15;;;15.00;99.90;;;;;;5081556;28;20047;-88
2023/07/22 06:16:08;;;;;;;4.47;2.65;;;15.20;99.90;;;;;;5078830;28;20094;-86
2023/07/22 06:18:56;;;;;;;4.13;2.95;;;15.20;99.90;;;;;;5105867;28;20036;-89
2023/07/22 06:21:44;;;;;;;5.75;3.28;;;15.30;99.90;;;;;;5094198;28;20163;-89
2023/07/22 06:24:34;;;;;;;3.78;2.72;;;15.30;99.90;;;;;;5086959;28;20033;-90
2023/07/22 06:27:21;;;;;;;3.88;2.72;;;15.40;99.90;;;;;;5093616;28;20044;-90
2023/07/22 06:30:10;;;;;;;4.15;2.72;;;15.50;99.90;;;;;;5086519;28;20056;-93
2023/07/22 06:32:58;;;;;;;3.42;2.60;;;15.50;99.90;;;;;;5088313;28;20055;-91
2023/07/22 06:35:48;;;;;;;4.80;2.92;;;15.60;99.90;;;;;;5109735;28;20044;-93
2023/07/22 06:42:57;;;;;;;7.90;2.80;;;16.10;87.60;;;;;;5093565;28;20048;-91
2023/07/22 06:46:25;;;;;;;3.97;2.55;;;16.10;1.00;;;;;;5070912;28;20064;-92
2023/07/22 06:49:28;;;;;;;3.67;2.60;;;16.30;1.00;;;;;;5085270;28;20044;-92
2023/07/22 06:53:24;;;;;;;3.83;2.47;;;16.50;1.00;;;;;;5013437;28;20056;-94
2023/07/22 06:56:32;;;;;;;4.07;2.55;;;16.70;1.00;;;;;;5009438;28;20050;-93
2023/07/22 06:59:53;;;;;;;3.28;2.45;;;16.80;1.00;;;;;;4988233;28;20478;-92
2023/07/22 07:07:00;;;;;;;4.77;2.40;;;17.20;1.00;;;;;;5007834;28;20146;-93
2023/07/22 07:10:29;;;;;;;3.92;2.53;;;17.60;1.00;;;;;;5042173;28;20099;-94
2023/07/22 07:13:48;;;;;;;2.70;1.98;;;17.80;99.90;;;;;;5016437;28;20145;-95
2023/07/22 07:17:07;;;;;;;6.13;2.67;;;18.10;99.90;;;;;;4965716;28;20057;-92
2023/07/22 07:20:59;;;;;;;2.40;2.03;;;18.50;99.90;;;;;;5003316;28;20038;-93
2023/07/22 07:24:27;;;;;;;3.90;2.25;;;19.00;99.90;;;;;;5003226;28;20165;-92
2023/07/22 07:28:22;;;;;;;2.38;2.00;;;19.30;99.90;;;;;;5027832;28;20046;-94
2023/07/22 07:32:09;;;;;;;;;;;;;;;;;;;;;
2023/07/22 07:39:32;;;;;;;9.10;2.13;;;20.10;99.90;;;;;;5010345;28;20056;-93
2023/07/22 07:43:37;;;;;;;;;;;;;;;;;;;;;
2023/07/22 07:47:30;;;;;;;;;;;;;;;;;;;;;
2023/07/22 07:54:58;;;;;;;3.47;1.90;;;21.10;99.90;;;;;;4924637;29;20040;-93
2023/07/22 07:58:25;;;;;;;5.95;2.05;;;21.50;99.90;;;;;;4960001;28;20057;-93
2023/07/22 08:01:47;;;;;;;;;;;;;;;;;;;;;
2023/07/22 08:05:44;;;;;;;2.15;1.65;;;21.10;89.40;;;;;;5068999;28;20123;-94
2023/07/22 08:12:09;;;;;;;3.25;1.63;;;22.10;47.70;;;;;;5076145;28;20069;-92
2023/07/22 08:19:37;;;;;;;3.10;2.00;;;22.20;38.00;;;;;;5038612;28;20173;-92
2023/07/22 08:23:18;;;;;;;2.42;1.70;;;22.30;20.40;;;;;;5036358;28;20072;-93
2023/07/22 08:29:42;;;;;;;;;;;22.60;6.60;;;;;;4966446;28;20365;-91
2023/07/22 08:33:05;;;;;;;1.98;1.60;;;23.40;1.00;;;;;;4952919;28;19923;-92
2023/07/22 08:36:40;;;;;;;2.75;1.60;;;23.20;1.00;;;;;;4961799;28;20060;-93
2023/07/22 08:39:51;;;;;;;3.38;1.60;;;23.30;1.00;;;;;;5002219;28;20054;-92
2023/07/22 08:42:56;;;;;;;1.67;1.42;;;23.40;1.00;;;;;;4989186;28;20387;-94
2023/07/22 08:45:50;;;;;;;2.58;1.35;;;24.00;1.00;;;;;;5031988;28;20056;-93
2023/07/22 08:49:50;;;;;;;2.85;1.60;;;25.00;1.00;;;;;;5083124;28;20060;-93
2023/07/22 08:57:41;;;;;;;4.55;1.30;;;25.00;1.00;;;;;;5046471;28;20057;-92
2023/07/22 09:00:58;;;;;;;2.35;1.45;;;22.90;1.00;;;;;;5033527;28;20046;-93
2023/07/22 09:04:33;;;;;;;1.85;1.05;;;22.50;1.00;;;;;;5055595;28;20045;-90
2023/07/22 09:11:04;;;;;;;3.08;1.20;;;22.00;1.00;;;;;;5092238;28;20036;-92
2023/07/22 09:14:06;;;;;;;;;;;;;;;;;;;;;
2023/07/22 09:17:22;;;;;;;2.20;1.20;;;21.80;1.00;;;;;;5026511;28;20177;-92
2023/07/22 09:20:41;;;;;;;2.67;1.42;;;21.70;1.00;;;;;;5015420;28;20056;-91
2023/07/22 09:23:58;;;;;;;2.45;1.45;;;21.90;1.00;;;;;;5063951;28;20376;-93
2023/07/22 09:26:58;;;;;;;3.10;1.50;;;22.40;1.00;;;;;;5071642;28;20048;-92
2023/07/22 09:30:00;;;;;;;1.60;1.38;;;23.10;1.00;;;;;;5057961;28;20118;-92
2023/07/22 09:33:26;;;;;;;;;;;;;;;;;;;;;
2023/07/22 09:41:09;;;;;;;1.88;1.30;;;22.60;1.00;;;;;;5082476;28;20048;-92
2023/07/22 09:44:20;;;;;;;2.38;1.30;;;22.60;1.00;;;;;;5083291;28;20437;-93
2023/07/22 09:47:12;;;;;;;1.02;1.00;;;22.60;1.00;;;;;;5076781;28;20063;-92
2023/07/22 09:51:06;;;;;;;;;;;;;;;;;;;;;
2023/07/22 09:54:51;;;;;;;1.73;1.42;;;22.40;1.00;;;;;;4975165;28;20459;-92
2023/07/22 09:58:11;;;;;;;3.13;1.23;;;22.20;1.00;;;;;;4980417;28;20035;-93
2023/07/22 10:09:15;;;;;;;;;;;25.40;1.00;;;;;;5023936;28;20054;-90
2023/07/22 10:16:25;;;;;;;2.60;1.40;;;26.90;1.00;;;;;;5017989;28;20018;-90
2023/07/22 10:19:44;;;;;;;2.92;1.70;;;25.80;1.00;;;;;;5016951;28;20056;-90
2023/07/22 10:22:56;;;;;;;2.00;1.50;;;25.10;1.00;;;;;;5004691;28;20050;-92
2023/07/22 10:25:46;;;;;;;3.90;1.98;;;25.00;1.00;;;;;;5041690;28;20132;-92
2023/07/22 10:29:04;;;;;;;4.13;1.85;;;25.40;1.00;;;;;;5041047;28;20466;-91
2023/07/22 10:32:04;;;;;;;5.38;1.50;;;25.40;1.00;;;;;;5046703;28;20057;-92
2023/07/22 10:34:52;;;;;;;1.95;1.23;;;25.70;1.00;;;;;;5055434;28;20056;-89
2023/07/22 10:37:47;;;;;;;2.42;1.70;;;25.40;1.00;;;;;;5072246;28;20048;-91
2023/07/22 10:40:53;;;;;;;2.88;1.98;;;25.50;1.00;;;;;;5079236;28;20657;-92
2023/07/22 10:44:16;;;;;;;;;;;;;;;;;;;;;
2023/07/22 10:47:39;;;;;;;2.83;1.60;;;26.90;1.00;;;;;;5075654;28;20072;-92
2023/07/22 10:50:46;;;;;;;2.05;1.30;;;27.10;1.00;;;;;;5080369;28;20041;-93
2023/07/22 10:54:08;;;;;;;2.00;1.65;;;26.30;1.00;;;;;;5066558;28;20605;-91
2023/07/22 10:57:30;;;;;;;1.67;1.40;;;25.30;1.00;;;;;;5067192;28;20072;-89
2023/07/22 11:00:35;;;;;;;1.83;1.38;;;24.70;1.00;;;;;;5074914;28;20453;-89
2023/07/22 11:03:28;;;;;;;2.90;1.52;;;24.00;1.00;;;;;;5066501;28;20182;-90
2023/07/22 11:06:35;;;;;;;4.22;1.90;;;23.70;1.00;;;;;;5041479;28;20056;-93
2023/07/22 11:09:48;;;;;;;;;;;;;;;;;;;;;
2023/07/22 11:12:47;;;;;;;2.28;1.48;;;24.30;1.00;;;;;;5085436;28;20145;-92
2023/07/22 11:15:50;;;;;;;4.32;1.75;;;26.10;1.00;;;;;;5066011;28;20045;-91
2023/07/22 11:18:44;;;;;;;4.95;1.42;;;27.80;1.00;;;;;;5088071;28;20076;-89
2023/07/22 11:21:43;;;;;;;3.63;1.50;;;28.70;1.00;;;;;;5082202;28;20052;-91
2023/07/22 11:24:47;;;;;;;2.33;1.20;;;29.50;1.00;;;;;;5064416;28;20056;-90
2023/07/22 11:27:35;;;;;;;1.60;1.27;;;30.40;1.00;;;;;;5088172;28;20052;-92
2023/07/22 11:30:27;;;;;;;2.70;1.70;;;30.60;1.00;;;;;;5078468;28;20461;-88
2023/07/22 11:33:15;;;;;;;2.42;1.30;;;29.60;1.00;;;;;;5074313;28;20053;-91
2023/07/22 11:36:08;;;;;;;1.70;1.60;;;30.00;1.00;;;;;;5088234;28;20457;-90
2023/07/22 11:39:33;;;;;;;1.40;1.25;;;29.70;1.00;;;;;;5093292;28;20040;-92
2023/07/22 11:42:45;;;;;;;3.08;1.60;;;28.60;1.00;;;;;;5069606;28;20453;-92
2023/07/22 11:45:38;;;;;;;;;;;26.90;1.00;;;;;;5084123;28;20040;-91
2023/07/22 11:49:21;;;;;;;2.50;1.70;;;26.20;1.00;;;;;;5083638;28;20320;-91
2023/07/22 11:52:17;;;;;;;2.05;1.42;;;25.10;1.00;;;;;;5079268;28;20056;-92
2023/07/22 11:55:11;;;;;;;2.83;1.60;;;24.30;1.00;;;;;;5076725;28;20466;-93
2023/07/22 11:58:31;;;;;;;2.90;1.65;;;25.60;1.00;;;;;;5057523;28;20041;-91
2023/07/22 12:01:49;;;;;;;;;;;;;;;;;;;;;
2023/07/22 12:04:57;;;;;;;4.22;1.70;;;25.60;1.00;;;;;;5093928;28;20037;-88
2023/07/22 12:07:56;;;;;;;1.77;1.38;;;27.80;1.00;;;;;;5093140;28;20107;-89
2023/07/22 12:11:09;;;;;;;2.50;1.73;;;28.70;1.00;;;;;;5106181;28;20044;-91
2023/07/22 12:14:44;;;;;;;2.65;1.60;;;28.50;1.00;;;;;;5072338;28;20044;-91
2023/07/22 12:22:14;;;;;;;2.10;1.52;;;27.30;1.00;;;;;;5011880;28;20094;-91
2023/07/22 12:25:32;;;;;;;2.38;2.00;;;26.70;1.00;;;;;;5057141;28;20043;-90
2023/07/22 12:32:14;;;;;;;2.80;1.70;;;27.20;1.00;;;;;;5068843;28;20048;-90
2023/07/22 12:35:20;;;;;;;;;;;;;;;;;;;;;
2023/07/22 12:38:27;;;;;;;3.10;1.65;;;28.50;1.00;;;;;;5081523;28;20052;-92
2023/07/22 12:41:53;;;;;;;2.15;1.60;;;26.90;1.00;;;;;;5048882;28;20041;-91
2023/07/22 12:45:35;;;;;;;1.73;1.38;;;27.70;1.00;;;;;;5042035;28;20048;-91
2023/07/22 12:48:48;;;;;;;3.22;1.80;;;29.30;1.00;;;;;;5085690;28;20045;-91
2023/07/22 12:52:09;;;;;;;2.15;1.80;;;29.90;1.00;;;;;;5079767;28;20045;-92
2023/07/22 12:55:18;;;;;;;;;;;;;;;;;;;;;
2023/07/22 12:58:09;;;;;;;3.15;2.40;;;29.20;1.00;;;;;;5077547;28;20193;-92
2023/07/22 13:01:13;;;;;;;3.22;2.28;;;27.90;1.00;;;;;;5079967;28;20040;-92
2023/07/22 13:04:09;;;;;;;3.17;2.35;;;28.50;1.00;;;;;;5057718;28;20437;-89
2023/07/22 13:07:03;;;;;;;7.93;2.88;;;27.60;1.00;;;;;;5066371;28;20076;-91
2023/07/22 13:09:57;;;;;;;2.47;2.03;;;27.10;1.00;;;;;;5070611;28;20100;-90
2023/07/22 13:13:05;;;;;;;3.28;1.70;;;26.90;1.00;;;;;;5094836;28;20071;-95
2023/07/22 13:16:00;;;;;;;5.57;2.38;;;26.70;1.00;;;;;;5065072;28;20059;-91
2023/07/22 13:19:03;;;;;;;;;;;;;;;;;;;;;
2023/07/22 13:22:04;;;;;;;6.47;2.20;;;25.90;1.00;;;;;;5061214;28;20053;-92
2023/07/22 13:25:26;;;;;;;3.97;2.20;;;25.70;1.00;;;;;;5086098;28;20043;-90
2023/07/22 13:28:28;;;;;;;8.35;2.53;;;25.70;1.00;;;;;;5088696;28;20040;-91
2023/07/22 13:31:59;;;;;;;4.32;2.20;;;25.90;1.00;;;;;;5038746;28;20064;-93
2023/07/22 13:34:49;;;;;;;4.75;2.30;;;25.80;1.00;;;;;;5082459;28;20401;-91
2023/07/22 13:38:11;;;;;;;2.67;2.00;;;25.90;1.00;;;;;;5074067;28;20078;-91
2023/07/22 13:41:33;;;;;;;4.28;2.20;;;26.70;1.00;;;;;;5050244;28;20041;-90
2023/07/22 13:44:24;;;;;;;7.40;3.08;;;27.50;1.00;;;;;;5074599;28;20665;-91
2023/07/22 13:47:16;;;;;;;5.45;2.72;;;26.70;1.00;;;;;;5080362;28;20048;-90
2023/07/22 13:50:47;;;;;;;5.88;2.33;;;25.90;1.00;;;;;;5064359;28;20397;-91
2023/07/22 14:01:09;;;;;;;6.90;2.58;;;28.50;1.00;;;;;;5073343;28;20489;-94
2023/07/22 14:05:05;;;;;;;3.85;2.38;;;29.60;1.00;;;;;;5078894;28;20182;-94
2023/07/22 14:08:53;;;;;;;4.47;2.42;;;29.50;1.00;;;;;;5022479;28;20079;-93
2023/07/22 14:12:20;;;;;;;5.05;2.58;;;27.60;1.00;;;;;;4965119;28;20412;-94
2023/07/22 14:23:49;;;;;;;2.65;1.90;;;26.20;1.00;;;;;;5012903;28;20034;-92
2023/07/22 14:27:10;;;;;;;5.43;2.58;;;27.30;1.00;;;;;;5074046;28;20040;-90
2023/07/22 14:30:12;;;;;;;3.55;2.50;;;27.90;1.00;;;;;;5047281;28;20072;-89
2023/07/22 14:33:02;;;;;;;5.53;2.80;;;28.90;1.00;;;;;;5071853;28;20052;-92
2023/07/22 14:35:56;;;;;;;4.03;3.17;;;29.40;1.00;;;;;;5064216;28;20091;-89
2023/07/22 14:38:43;;;;;;;5.03;2.67;;;30.00;1.00;;;;;;5077645;28;20040;-90
2023/07/22 14:41:54;;;;;;;5.72;2.63;;;30.20;1.00;;;;;;5079923;28;20055;-92
2023/07/22 14:44:49;;;;;;;5.10;2.63;;;29.60;1.00;;;;;;5070127;28;20044;-91
2023/07/22 14:47:50;;;;;;;3.10;2.80;;;29.40;1.00;;;;;;5092829;28;20508;-90
2023/07/22 14:50:38;;;;;;;3.90;2.83;;;29.50;1.00;;;;;;5080647;28;20135;-90
2023/07/22 14:53:54;;;;;;;7.22;2.83;;;29.20;1.00;;;;;;5062013;28;20059;-92
2023/07/22 14:56:54;;;;;;;6.68;2.70;;;26.80;1.00;;;;;;5097346;28;20465;-92
2023/07/22 14:59:55;;;;;;;4.50;2.80;;;25.60;1.00;;;;;;5061849;28;20056;-93
2023/07/22 15:03:56;;;;;;;;;;;;;;;;;;;;;
2023/07/22 15:10:55;;;;;;;5.15;3.15;;;24.90;1.00;;;;;;5072446;28;20088;-92
2023/07/22 15:14:11;;;;;;;5.45;3.20;;;24.80;1.00;;;;;;5086835;28;20131;-93
2023/07/22 15:17:23;;;;;;;;;;;;;;;;;;;;;
2023/07/22 15:20:33;;;;;;;;;;;;;;;;;;;;;
2023/07/22 15:24:07;;;;;;;6.32;3.10;;;25.70;1.00;;;;;;5081636;28;20068;-92
2023/07/22 15:27:43;;;;;;;4.03;2.92;;;25.80;1.00;;;;;;5081835;28;20134;-93
2023/07/22 15:30:37;;;;;;;5.00;2.75;;;24.90;1.00;;;;;;5062762;28;20059;-91
2023/07/22 15:37:34;;;;;;;4.90;2.85;;;24.30;1.00;;;;;;5080420;28;20032;-90
2023/07/22 15:40:51;;;;;;;6.07;2.63;;;23.90;1.00;;;;;;5077237;28;20041;-91
2023/07/22 15:48:09;;;;;;;3.22;2.70;;;23.90;1.00;;;;;;5023228;28;20069;-93
2023/07/22 16:04:24;;;;;;;4.05;3.05;;;24.90;1.00;;;;;;4777458;30;20043;-91
2023/07/22 16:07:18;;;;;;;4.93;2.97;;;24.50;1.00;;;;;;4785150;29;20042;-91
2023/07/22 16:11:05;;;;;;;;;;;;;;;;;;;;;
2023/07/22 16:14:07;;;;;;;3.22;2.42;;;24.60;1.00;;;;;;4861192;29;20065;-92
2023/07/22 16:17:28;;;;;;;4.32;3.25;;;24.50;1.00;;;;;;4854058;29;20060;-92
2023/07/22 16:20:28;;;;;;;4.90;3.08;;;24.60;1.00;;;;;;5013309;28;20056;-92
2023/07/22 16:23:18;;;;;;;3.45;2.70;;;24.70;1.00;;;;;;5019252;28;20104;-92
2023/07/22 16:26:12;;;;;;;3.47;3.00;;;25.00;1.00;;;;;;5023538;28;20049;-91
2023/07/22 16:29:01;;;;;;;5.07;3.40;;;24.90;1.00;;;;;;5044264;28;20164;-87
2023/07/22 16:36:31;;;;;;;5.18;2.83;;;24.50;1.00;;;;;;5011430;28;20042;-91
2023/07/22 16:39:33;;;;;;;4.10;2.40;;;24.70;1.00;;;;;;5019973;28;20424;-92
2023/07/22 16:43:15;;;;;;;3.45;2.95;;;24.90;1.00;;;;;;5089188;28;20041;-92
2023/07/22 16:46:16;;;;;;;3.15;2.70;;;24.80;1.00;;;;;;5071054;28;20125;-92
2023/07/22 16:49:07;;;;;;;6.47;2.72;;;25.10;1.00;;;;;;5083064;28;20063;-90
2023/07/22 16:51:55;;;;;;;6.72;3.22;;;25.30;1.00;;;;;;5087049;28;20355;-94
2023/07/22 16:55:09;;;;;;;4.75;3.25;;;25.00;1.00;;;;;;5095223;28;20059;-92
2023/07/22 16:58:12;;;;;;;8.65;3.00;;;24.70;1.00;;;;;;5088422;28;20029;-92
2023/07/22 17:01:17;;;;;;;3.67;3.13;;;24.30;1.00;;;;;;5081947;28;20048;-88
2023/07/22 17:04:21;;;;;;;6.32;3.58;;;24.20;1.00;;;;;;5082206;28;20059;-90
2023/07/22 17:07:30;;;;;;;5.43;4.20;;;24.10;1.00;;;;;;5078836;28;20045;-91
2023/07/22 17:10:25;;;;;;;4.15;2.63;;;24.20;1.00;;;;;;5074900;28;20048;-90
2023/07/22 17:13:25;;;;;;;4.72;2.47;;;24.10;1.00;;;;;;5082019;28;20054;-91
2023/07/22 17:16:26;;;;;;;3.42;2.72;;;24.10;1.00;;;;;;5079537;28;20040;-88
2023/07/22 17:19:25;;;;;;;6.13;2.30;;;23.90;1.00;;;;;;5071489;28;20056;-92
2023/07/22 17:22:44;;;;;;;4.55;3.13;;;24.00;1.00;;;;;;5025771;28;20047;-92
2023/07/22 17:25:35;;;;;;;4.13;3.22;;;24.00;1.00;;;;;;5079010;28;20051;-91
2023/07/22 17:28:47;;;;;;;3.58;2.63;;;23.90;1.00;;;;;;5068094;28;20056;-89
2023/07/22 17:35:54;;;;;;;3.25;2.42;;;23.80;1.00;;;;;;5086695;28;20036;-90
2023/07/22 17:38:56;;;;;;;;;;;;;;;;;;;;;
2023/07/22 17:42:38;;;;;;;5.97;2.65;;;23.50;1.00;;;;;;5034561;28;20042;-91
2023/07/22 17:45:39;;;;;;;6.32;2.70;;;23.30;1.00;;;;;;5066751;28;20052;-90
2023/07/22 17:48:36;;;;;;;;;;;;;;;;;;;;;
2023/07/22 17:52:06;;;;;;;3.08;2.30;;;23.20;1.00;;;;;;5084857;28;20555;-91
2023/07/22 17:56:06;;;;;;;4.80;2.55;;;23.10;1.00;;;;;;5106969;28;20047;-87
2023/07/22 17:59:23;;;;;;;12.73;3.10;;;22.90;1.00;;;;;;5006188;28;20042;-91
2023/07/22 18:02:37;;;;;;;5.18;3.40;;;22.80;1.00;;;;;;5013236;28;20050;-91
2023/07/22 18:06:17;;;;;;;6.93;2.90;;;22.70;1.00;;;;;;5026188;28;20045;-90
2023/07/22 18:10:13;;;;;;;5.75;2.80;;;22.60;1.00;;;;;;4912711;28;20414;-90
2023/07/22 18:13:59;;;;;;;;;;;;;;;;;;;;;
2023/07/22 18:21:06;;;;;;;7.03;4.00;;;22.20;1.00;;;;;;4940884;29;20046;-93
2023/07/22 18:24:22;;;;;;;6.10;3.60;;;22.20;1.00;;;;;;4916134;29;20059;-93
2023/07/22 18:27:12;;;;;;;5.15;3.58;;;22.10;1.00;;;;;;4942254;29;20056;-91
2023/07/22 18:30:07;;;;;;;8.60;4.00;;;22.00;1.00;;;;;;4938488;29;20047;-90
2023/07/22 18:32:56;;;;;;;3.97;2.83;;;21.90;1.00;;;;;;4932279;28;20129;-92
2023/07/22 18:35:58;;;;;;;7.20;3.92;;;21.80;1.00;;;;;;4982338;28;20053;-91
2023/07/22 18:38:46;;;;;;;4.65;3.30;;;21.70;1.00;;;;;;5010376;28;20050;-92
2023/07/22 18:41:54;;;;;;;6.07;3.90;;;21.60;1.00;;;;;;5005871;28;20388;-92
2023/07/22 18:45:04;;;;;;;6.35;3.83;;;21.50;1.00;;;;;;5006973;28;20050;-89
2023/07/22 18:47:52;;;;;;;8.43;4.25;;;21.40;1.00;;;;;;4984391;28;20054;-89
2023/07/22 18:51:14;;;;;;;6.80;4.13;;;21.30;1.00;;;;;;4990124;28;20050;-92
2023/07/22 18:54:05;;;;;;;6.45;4.20;;;21.20;1.00;;;;;;5032842;28;20044;-91
2023/07/22 18:56:53;;;;;;;4.43;2.80;;;21.20;1.00;;;;;;5090024;28;20072;-89
2023/07/22 18:59:46;;;;;;;3.25;2.70;;;21.10;1.00;;;;;;5073463;28;20190;-91
2023/07/22 19:02:38;;;;;;;5.50;3.35;;;21.00;1.00;;;;;;5079785;28;20059;-90